sensor_id;sensor_type;location;lat;lon;timestamp;P1;durP1;ratioP1;P2;durP2;ratioP2
46765;SDS011;32527;51.986;5.842;2023-11-19T00:02:10;10.43;;;7.18;;
46765;SDS011;32527;51.986;5.842;2023-11-19T00:04:37;10.07;;;6.63;;
46765;SDS011;32527;51.986;5.842;2023-11-19T00:07:06;10.70;;;6.93;;
46765;SDS011;32527;51.986;5.842;2023-11-19T00:09:35;11.95;;;7.18;;
46765;SDS011;32527;51.986;5.842;2023-11-19T00:12:05;8.95;;;6.32;;
46765;SDS011;32527;51.986;5.842;2023-11-19T00:14:31;13.32;;;7.30;;
46765;SDS011;32527;51.986;5.842;2023-11-19T00:16:57;13.68;;;6.53;;
46765;SDS011;32527;51.986;5.842;2023-11-19T00:19:23;11.20;;;6.50;;
46765;SDS011;32527;51.986;5.842;2023-11-19T00:21:51;8.85;;;5.93;;
46765;SDS011;32527;51.986;5.842;2023-11-19T00:24:17;6.78;;;5.32;;
46765;SDS011;32527;51.986;5.842;2023-11-19T00:26:43;10.40;;;5.65;;
46765;SDS011;32527;51.986;5.842;2023-11-19T00:29:10;10.77;;;5.72;;
46765;SDS011;32527;51.986;5.842;2023-11-19T00:31:36;11.20;;;7.40;;
46765;SDS011;32527;51.986;5.842;2023-11-19T00:34:03;9.40;;;5.90;;
46765;SDS011;32527;51.986;5.842;2023-11-19T00:36:31;7.75;;;5.43;;
46765;SDS011;32527;51.986;5.842;2023-11-19T00:38:57;8.88;;;6.22;;
46765;SDS011;32527;51.986;5.842;2023-11-19T00:41:23;11.18;;;5.45;;
46765;SDS011;32527;51.986;5.842;2023-11-19T00:43:50;8.88;;;5.13;;
46765;SDS011;32527;51.986;5.842;2023-11-19T00:46:16;7.82;;;5.05;;
46765;SDS011;32527;51.986;5.842;2023-11-19T00:48:42;14.15;;;5.90;;
46765;SDS011;32527;51.986;5.842;2023-11-19T00:51:08;28.98;;;5.70;;
46765;SDS011;32527;51.986;5.842;2023-11-19T00:53:37;8.48;;;4.90;;
46765;SDS011;32527;51.986;5.842;2023-11-19T00:56:03;11.30;;;5.15;;
46765;SDS011;32527;51.986;5.842;2023-11-19T00:58:29;14.02;;;6.45;;
46765;SDS011;32527;51.986;5.842;2023-11-19T01:00:55;12.23;;;4.43;;
46765;SDS011;32527;51.986;5.842;2023-11-19T01:03:22;10.35;;;4.47;;
46765;SDS011;32527;51.986;5.842;2023-11-19T01:05:48;13.40;;;4.47;;
46765;SDS011;32527;51.986;5.842;2023-11-19T01:08:14;14.88;;;4.35;;
46765;SDS011;32527;51.986;5.842;2023-11-19T01:10:41;18.88;;;4.80;;
46765;SDS011;32527;51.986;5.842;2023-11-19T01:13:07;5.05;;;3.65;;
46765;SDS011;32527;51.986;5.842;2023-11-19T01:15:33;12.52;;;4.45;;
46765;SDS011;32527;51.986;5.842;2023-11-19T01:17:59;16.67;;;4.40;;
46765;SDS011;32527;51.986;5.842;2023-11-19T01:20:27;10.05;;;4.00;;
46765;SDS011;32527;51.986;5.842;2023-11-19T01:22:54;11.63;;;3.67;;
46765;SDS011;32527;51.986;5.842;2023-11-19T01:25:20;12.07;;;4.47;;
46765;SDS011;32527;51.986;5.842;2023-11-19T01:27:46;4.30;;;3.42;;
46765;SDS011;32527;51.986;5.842;2023-11-19T01:30:12;11.52;;;3.80;;
46765;SDS011;32527;51.986;5.842;2023-11-19T01:32:39;15.07;;;4.30;;
46765;SDS011;32527;51.986;5.842;2023-11-19T01:35:05;12.40;;;4.35;;
46765;SDS011;32527;51.986;5.842;2023-11-19T01:37:33;8.30;;;3.50;;
46765;SDS011;32527;51.986;5.842;2023-11-19T01:40:00;15.32;;;5.25;;
46765;SDS011;32527;51.986;5.842;2023-11-19T01:42:28;24.15;;;4.32;;
46765;SDS011;32527;51.986;5.842;2023-11-19T01:45:00;7.35;;;4.22;;
46765;SDS011;32527;51.986;5.842;2023-11-19T01:47:31;9.25;;;3.70;;
46765;SDS011;32527;51.986;5.842;2023-11-19T01:49:57;7.97;;;3.42;;
46765;SDS011;32527;51.986;5.842;2023-11-19T01:52:24;15.13;;;4.22;;
46765;SDS011;32527;51.986;5.842;2023-11-19T01:54:51;11.93;;;3.58;;
46765;SDS011;32527;51.986;5.842;2023-11-19T01:57:18;19.05;;;3.88;;
46765;SDS011;32527;51.986;5.842;2023-11-19T01:59:48;22.55;;;5.10;;
46765;SDS011;32527;51.986;5.842;2023-11-19T02:02:16;14.60;;;3.20;;
46765;SDS011;32527;51.986;5.842;2023-11-19T02:04:46;5.03;;;2.75;;
46765;SDS011;32527;51.986;5.842;2023-11-19T02:07:13;18.35;;;3.70;;
46765;SDS011;32527;51.986;5.842;2023-11-19T02:09:42;8.35;;;3.35;;
46765;SDS011;32527;51.986;5.842;2023-11-19T02:12:08;14.30;;;3.83;;
46765;SDS011;32527;51.986;5.842;2023-11-19T02:14:35;10.98;;;3.10;;
46765;SDS011;32527;51.986;5.842;2023-11-19T02:17:01;19.38;;;3.92;;
46765;SDS011;32527;51.986;5.842;2023-11-19T02:19:27;21.30;;;4.55;;
46765;SDS011;32527;51.986;5.842;2023-11-19T02:21:54;13.38;;;3.10;;
46765;SDS011;32527;51.986;5.842;2023-11-19T02:24:21;12.10;;;4.70;;
46765;SDS011;32527;51.986;5.842;2023-11-19T02:29:25;10.77;;;2.35;;
46765;SDS011;32527;51.986;5.842;2023-11-19T02:31:52;9.50;;;3.10;;
46765;SDS011;32527;51.986;5.842;2023-11-19T02:34:20;15.30;;;2.72;;
46765;SDS011;32527;51.986;5.842;2023-11-19T02:36:47;14.38;;;2.85;;
46765;SDS011;32527;51.986;5.842;2023-11-19T02:39:13;18.63;;;4.38;;
46765;SDS011;32527;51.986;5.842;2023-11-19T02:41:39;17.80;;;3.25;;
46765;SDS011;32527;51.986;5.842;2023-11-19T02:44:06;14.95;;;2.67;;
46765;SDS011;32527;51.986;5.842;2023-11-19T02:46:33;9.93;;;3.55;;
46765;SDS011;32527;51.986;5.842;2023-11-19T02:48:59;22.67;;;2.90;;
46765;SDS011;32527;51.986;5.842;2023-11-19T02:51:25;8.50;;;3.25;;
46765;SDS011;32527;51.986;5.842;2023-11-19T02:53:52;16.33;;;4.00;;
46765;SDS011;32527;51.986;5.842;2023-11-19T02:56:18;17.05;;;3.60;;
46765;SDS011;32527;51.986;5.842;2023-11-19T02:58:50;16.92;;;2.97;;
46765;SDS011;32527;51.986;5.842;2023-11-19T03:01:25;23.27;;;3.95;;
46765;SDS011;32527;51.986;5.842;2023-11-19T03:03:58;20.38;;;3.17;;
46765;SDS011;32527;51.986;5.842;2023-11-19T03:06:26;18.90;;;2.72;;
46765;SDS011;32527;51.986;5.842;2023-11-19T03:08:53;14.60;;;3.42;;
46765;SDS011;32527;51.986;5.842;2023-11-19T03:11:19;12.52;;;2.75;;
46765;SDS011;32527;51.986;5.842;2023-11-19T03:13:46;17.67;;;3.45;;
46765;SDS011;32527;51.986;5.842;2023-11-19T03:16:12;27.23;;;4.72;;
46765;SDS011;32527;51.986;5.842;2023-11-19T03:18:38;13.93;;;3.40;;
46765;SDS011;32527;51.986;5.842;2023-11-19T03:21:07;18.80;;;3.67;;
46765;SDS011;32527;51.986;5.842;2023-11-19T03:23:33;20.75;;;4.15;;
46765;SDS011;32527;51.986;5.842;2023-11-19T03:26:00;16.50;;;5.00;;
46765;SDS011;32527;51.986;5.842;2023-11-19T03:28:30;12.95;;;3.35;;
46765;SDS011;32527;51.986;5.842;2023-11-19T03:30:56;17.20;;;3.55;;
46765;SDS011;32527;51.986;5.842;2023-11-19T03:33:22;21.80;;;3.35;;
46765;SDS011;32527;51.986;5.842;2023-11-19T03:35:50;11.63;;;3.47;;
46765;SDS011;32527;51.986;5.842;2023-11-19T03:38:17;15.63;;;4.43;;
46765;SDS011;32527;51.986;5.842;2023-11-19T03:40:43;20.50;;;4.93;;
46765;SDS011;32527;51.986;5.842;2023-11-19T03:43:09;16.50;;;6.03;;
46765;SDS011;32527;51.986;5.842;2023-11-19T03:45:35;27.75;;;5.80;;
46765;SDS011;32527;51.986;5.842;2023-11-19T03:48:01;28.58;;;4.38;;
46765;SDS011;32527;51.986;5.842;2023-11-19T03:50:27;27.00;;;6.22;;
46765;SDS011;32527;51.986;5.842;2023-11-19T03:52:53;21.88;;;5.07;;
46765;SDS011;32527;51.986;5.842;2023-11-19T03:55:19;21.77;;;5.40;;
46765;SDS011;32527;51.986;5.842;2023-11-19T03:57:45;21.38;;;6.63;;
46765;SDS011;32527;51.986;5.842;2023-11-19T04:00:13;16.58;;;4.50;;
46765;SDS011;32527;51.986;5.842;2023-11-19T04:02:40;18.40;;;6.72;;
46765;SDS011;32527;51.986;5.842;2023-11-19T04:05:06;23.17;;;4.45;;
46765;SDS011;32527;51.986;5.842;2023-11-19T04:07:32;26.58;;;6.25;;
46765;SDS011;32527;51.986;5.842;2023-11-19T04:09:58;15.80;;;4.05;;
46765;SDS011;32527;51.986;5.842;2023-11-19T04:12:25;26.00;;;4.32;;
46765;SDS011;32527;51.986;5.842;2023-11-19T04:14:51;14.50;;;4.88;;
46765;SDS011;32527;51.986;5.842;2023-11-19T04:17:18;23.63;;;3.58;;
46765;SDS011;32527;51.986;5.842;2023-11-19T04:19:44;13.10;;;3.15;;
46765;SDS011;32527;51.986;5.842;2023-11-19T04:22:10;15.25;;;3.53;;
46765;SDS011;32527;51.986;5.842;2023-11-19T04:24:36;28.65;;;5.00;;
46765;SDS011;32527;51.986;5.842;2023-11-19T04:27:04;27.90;;;3.97;;
46765;SDS011;32527;51.986;5.842;2023-11-19T04:29:31;18.27;;;4.25;;
46765;SDS011;32527;51.986;5.842;2023-11-19T04:31:57;29.63;;;5.55;;
46765;SDS011;32527;51.986;5.842;2023-11-19T04:34:26;9.45;;;3.53;;
46765;SDS011;32527;51.986;5.842;2023-11-19T04:36:52;20.58;;;4.85;;
46765;SDS011;32527;51.986;5.842;2023-11-19T04:39:18;17.70;;;4.05;;
46765;SDS011;32527;51.986;5.842;2023-11-19T04:41:50;13.43;;;2.67;;
46765;SDS011;32527;51.986;5.842;2023-11-19T04:44:19;30.48;;;3.92;;
46765;SDS011;32527;51.986;5.842;2023-11-19T04:46:45;22.02;;;4.88;;
46765;SDS011;32527;51.986;5.842;2023-11-19T04:49:11;20.80;;;3.17;;
46765;SDS011;32527;51.986;5.842;2023-11-19T04:51:41;22.60;;;3.08;;
46765;SDS011;32527;51.986;5.842;2023-11-19T04:54:08;26.90;;;4.53;;
46765;SDS011;32527;51.986;5.842;2023-11-19T04:56:34;23.98;;;4.78;;
46765;SDS011;32527;51.986;5.842;2023-11-19T04:59:02;12.32;;;3.08;;
46765;SDS011;32527;51.986;5.842;2023-11-19T05:01:28;30.42;;;5.10;;
46765;SDS011;32527;51.986;5.842;2023-11-19T05:03:54;15.20;;;3.08;;
46765;SDS011;32527;51.986;5.842;2023-11-19T05:06:20;19.38;;;4.00;;
46765;SDS011;32527;51.986;5.842;2023-11-19T05:08:46;14.27;;;3.90;;
46765;SDS011;32527;51.986;5.842;2023-11-19T05:11:12;12.10;;;3.60;;
46765;SDS011;32527;51.986;5.842;2023-11-19T05:13:43;22.67;;;3.25;;
46765;SDS011;32527;51.986;5.842;2023-11-19T05:16:10;9.65;;;3.53;;
46765;SDS011;32527;51.986;5.842;2023-11-19T05:18:39;12.20;;;3.20;;
46765;SDS011;32527;51.986;5.842;2023-11-19T05:21:05;20.75;;;3.78;;
46765;SDS011;32527;51.986;5.842;2023-11-19T05:23:32;27.52;;;3.40;;
46765;SDS011;32527;51.986;5.842;2023-11-19T05:26:01;35.17;;;3.90;;
46765;SDS011;32527;51.986;5.842;2023-11-19T05:28:27;13.80;;;3.33;;
46765;SDS011;32527;51.986;5.842;2023-11-19T05:30:53;18.83;;;3.60;;
46765;SDS011;32527;51.986;5.842;2023-11-19T05:33:20;19.08;;;2.78;;
46765;SDS011;32527;51.986;5.842;2023-11-19T05:35:46;19.05;;;3.92;;
46765;SDS011;32527;51.986;5.842;2023-11-19T05:38:12;15.23;;;3.63;;
46765;SDS011;32527;51.986;5.842;2023-11-19T05:40:39;7.20;;;2.50;;
46765;SDS011;32527;51.986;5.842;2023-11-19T05:43:05;19.30;;;2.85;;
46765;SDS011;32527;51.986;5.842;2023-11-19T05:45:31;21.40;;;3.65;;
46765;SDS011;32527;51.986;5.842;2023-11-19T05:47:58;18.98;;;4.22;;
46765;SDS011;32527;51.986;5.842;2023-11-19T05:50:24;17.05;;;3.92;;
46765;SDS011;32527;51.986;5.842;2023-11-19T05:52:50;17.13;;;3.60;;
46765;SDS011;32527;51.986;5.842;2023-11-19T05:55:18;21.08;;;4.80;;
46765;SDS011;32527;51.986;5.842;2023-11-19T05:57:44;29.85;;;4.90;;
46765;SDS011;32527;51.986;5.842;2023-11-19T06:00:10;11.75;;;2.65;;
46765;SDS011;32527;51.986;5.842;2023-11-19T06:02:38;20.30;;;4.20;;
46765;SDS011;32527;51.986;5.842;2023-11-19T06:05:04;21.63;;;3.95;;
46765;SDS011;32527;51.986;5.842;2023-11-19T06:07:31;21.15;;;4.88;;
46765;SDS011;32527;51.986;5.842;2023-11-19T06:09:58;14.30;;;3.50;;
46765;SDS011;32527;51.986;5.842;2023-11-19T06:12:24;14.00;;;2.83;;
46765;SDS011;32527;51.986;5.842;2023-11-19T06:14:50;19.75;;;4.38;;
46765;SDS011;32527;51.986;5.842;2023-11-19T06:17:16;19.92;;;4.30;;
46765;SDS011;32527;51.986;5.842;2023-11-19T06:19:42;19.75;;;4.43;;
46765;SDS011;32527;51.986;5.842;2023-11-19T06:22:10;14.30;;;3.00;;
46765;SDS011;32527;51.986;5.842;2023-11-19T06:24:36;21.73;;;4.30;;
46765;SDS011;32527;51.986;5.842;2023-11-19T06:27:02;12.13;;;3.58;;
46765;SDS011;32527;51.986;5.842;2023-11-19T06:29:29;17.52;;;3.78;;
46765;SDS011;32527;51.986;5.842;2023-11-19T06:31:55;15.40;;;3.88;;
46765;SDS011;32527;51.986;5.842;2023-11-19T06:34:22;22.13;;;5.18;;
46765;SDS011;32527;51.986;5.842;2023-11-19T06:36:48;17.75;;;3.22;;
46765;SDS011;32527;51.986;5.842;2023-11-19T06:39:14;19.85;;;3.58;;
46765;SDS011;32527;51.986;5.842;2023-11-19T06:41:49;12.93;;;3.13;;
46765;SDS011;32527;51.986;5.842;2023-11-19T06:44:14;24.10;;;3.35;;
46765;SDS011;32527;51.986;5.842;2023-11-19T06:46:41;19.02;;;3.25;;
46765;SDS011;32527;51.986;5.842;2023-11-19T06:49:07;9.52;;;4.32;;
46765;SDS011;32527;51.986;5.842;2023-11-19T06:51:33;24.15;;;3.38;;
46765;SDS011;32527;51.986;5.842;2023-11-19T06:53:59;16.75;;;3.90;;
46765;SDS011;32527;51.986;5.842;2023-11-19T06:56:26;13.80;;;2.63;;
46765;SDS011;32527;51.986;5.842;2023-11-19T06:58:52;18.15;;;4.05;;
46765;SDS011;32527;51.986;5.842;2023-11-19T07:01:18;22.20;;;3.83;;
46765;SDS011;32527;51.986;5.842;2023-11-19T07:03:48;14.95;;;6.15;;
46765;SDS011;32527;51.986;5.842;2023-11-19T07:06:14;13.43;;;4.60;;
46765;SDS011;32527;51.986;5.842;2023-11-19T07:08:43;33.08;;;4.13;;
46765;SDS011;32527;51.986;5.842;2023-11-19T07:11:12;26.08;;;4.38;;
46765;SDS011;32527;51.986;5.842;2023-11-19T07:13:40;21.27;;;3.67;;
46765;SDS011;32527;51.986;5.842;2023-11-19T07:16:06;20.85;;;3.30;;
46765;SDS011;32527;51.986;5.842;2023-11-19T07:18:35;18.92;;;3.15;;
46765;SDS011;32527;51.986;5.842;2023-11-19T07:21:01;15.63;;;3.22;;
46765;SDS011;32527;51.986;5.842;2023-11-19T07:23:28;17.73;;;3.10;;
46765;SDS011;32527;51.986;5.842;2023-11-19T07:25:54;17.42;;;3.17;;
46765;SDS011;32527;51.986;5.842;2023-11-19T07:28:19;27.58;;;3.92;;
46765;SDS011;32527;51.986;5.842;2023-11-19T07:30:46;12.63;;;3.00;;
46765;SDS011;32527;51.986;5.842;2023-11-19T07:33:12;9.45;;;3.90;;
46765;SDS011;32527;51.986;5.842;2023-11-19T07:35:39;15.77;;;3.78;;
46765;SDS011;32527;51.986;5.842;2023-11-19T07:38:07;19.48;;;3.72;;
46765;SDS011;32527;51.986;5.842;2023-11-19T07:40:33;15.00;;;2.85;;
46765;SDS011;32527;51.986;5.842;2023-11-19T07:42:59;14.55;;;3.97;;
46765;SDS011;32527;51.986;5.842;2023-11-19T07:45:25;18.70;;;3.13;;
46765;SDS011;32527;51.986;5.842;2023-11-19T07:47:52;15.05;;;4.55;;
46765;SDS011;32527;51.986;5.842;2023-11-19T07:50:19;11.98;;;3.22;;
46765;SDS011;32527;51.986;5.842;2023-11-19T07:52:45;21.67;;;3.13;;
46765;SDS011;32527;51.986;5.842;2023-11-19T07:55:11;10.35;;;3.72;;
46765;SDS011;32527;51.986;5.842;2023-11-19T07:57:38;18.30;;;3.17;;
46765;SDS011;32527;51.986;5.842;2023-11-19T08:00:04;13.20;;;3.50;;
46765;SDS011;32527;51.986;5.842;2023-11-19T08:02:38;13.18;;;3.83;;
46765;SDS011;32527;51.986;5.842;2023-11-19T08:05:04;14.93;;;3.92;;
46765;SDS011;32527;51.986;5.842;2023-11-19T08:07:31;23.67;;;3.72;;
46765;SDS011;32527;51.986;5.842;2023-11-19T08:09:57;17.05;;;3.75;;
46765;SDS011;32527;51.986;5.842;2023-11-19T08:12:23;18.95;;;3.83;;
46765;SDS011;32527;51.986;5.842;2023-11-19T08:14:49;23.13;;;3.58;;
46765;SDS011;32527;51.986;5.842;2023-11-19T08:17:15;15.80;;;3.97;;
46765;SDS011;32527;51.986;5.842;2023-11-19T08:19:41;5.97;;;2.88;;
46765;SDS011;32527;51.986;5.842;2023-11-19T08:22:07;31.33;;;4.82;;
46765;SDS011;32527;51.986;5.842;2023-11-19T08:24:34;16.50;;;3.50;;
46765;SDS011;32527;51.986;5.842;2023-11-19T08:27:00;21.80;;;3.65;;
46765;SDS011;32527;51.986;5.842;2023-11-19T08:29:26;8.30;;;2.45;;
46765;SDS011;32527;51.986;5.842;2023-11-19T08:31:53;8.55;;;2.75;;
46765;SDS011;32527;51.986;5.842;2023-11-19T08:34:19;29.27;;;5.70;;
46765;SDS011;32527;51.986;5.842;2023-11-19T08:36:45;13.30;;;3.50;;
46765;SDS011;32527;51.986;5.842;2023-11-19T08:39:11;28.20;;;4.30;;
46765;SDS011;32527;51.986;5.842;2023-11-19T08:41:38;22.17;;;4.07;;
46765;SDS011;32527;51.986;5.842;2023-11-19T08:44:06;15.13;;;3.33;;
46765;SDS011;32527;51.986;5.842;2023-11-19T08:46:32;23.98;;;3.35;;
46765;SDS011;32527;51.986;5.842;2023-11-19T08:48:58;10.88;;;3.10;;
46765;SDS011;32527;51.986;5.842;2023-11-19T08:51:25;27.58;;;3.58;;
46765;SDS011;32527;51.986;5.842;2023-11-19T08:53:51;19.05;;;3.33;;
46765;SDS011;32527;51.986;5.842;2023-11-19T08:56:17;10.73;;;3.80;;
46765;SDS011;32527;51.986;5.842;2023-11-19T08:58:43;9.70;;;2.50;;
46765;SDS011;32527;51.986;5.842;2023-11-19T09:01:09;20.67;;;4.50;;
46765;SDS011;32527;51.986;5.842;2023-11-19T09:03:35;17.83;;;4.40;;
46765;SDS011;32527;51.986;5.842;2023-11-19T09:06:02;10.82;;;3.03;;
46765;SDS011;32527;51.986;5.842;2023-11-19T09:08:28;14.95;;;3.13;;
46765;SDS011;32527;51.986;5.842;2023-11-19T09:10:54;12.18;;;3.67;;
46765;SDS011;32527;51.986;5.842;2023-11-19T09:13:20;7.03;;;2.63;;
46765;SDS011;32527;51.986;5.842;2023-11-19T09:15:46;20.88;;;3.72;;
46765;SDS011;32527;51.986;5.842;2023-11-19T09:18:12;12.32;;;2.97;;
46765;SDS011;32527;51.986;5.842;2023-11-19T09:20:38;11.98;;;2.70;;
46765;SDS011;32527;51.986;5.842;2023-11-19T09:23:05;12.82;;;3.45;;
46765;SDS011;32527;51.986;5.842;2023-11-19T09:25:31;7.72;;;2.60;;
46765;SDS011;32527;51.986;5.842;2023-11-19T09:27:57;12.32;;;2.17;;
46765;SDS011;32527;51.986;5.842;2023-11-19T09:30:23;24.20;;;5.18;;
46765;SDS011;32527;51.986;5.842;2023-11-19T09:32:49;18.55;;;4.57;;
46765;SDS011;32527;51.986;5.842;2023-11-19T09:35:15;18.67;;;3.88;;
46765;SDS011;32527;51.986;5.842;2023-11-19T09:37:43;16.48;;;3.58;;
46765;SDS011;32527;51.986;5.842;2023-11-19T09:40:08;10.63;;;3.25;;
46765;SDS011;32527;51.986;5.842;2023-11-19T09:42:40;10.85;;;3.88;;
46765;SDS011;32527;51.986;5.842;2023-11-19T09:45:12;20.13;;;3.85;;
46765;SDS011;32527;51.986;5.842;2023-11-19T09:47:42;13.35;;;2.22;;
46765;SDS011;32527;51.986;5.842;2023-11-19T09:50:09;14.18;;;3.67;;
46765;SDS011;32527;51.986;5.842;2023-11-19T09:52:39;15.02;;;3.03;;
46765;SDS011;32527;51.986;5.842;2023-11-19T09:55:05;7.70;;;3.25;;
46765;SDS011;32527;51.986;5.842;2023-11-19T09:57:32;5.75;;;3.05;;
46765;SDS011;32527;51.986;5.842;2023-11-19T09:59:59;11.85;;;3.10;;
46765;SDS011;32527;51.986;5.842;2023-11-19T10:02:26;19.55;;;4.05;;
46765;SDS011;32527;51.986;5.842;2023-11-19T10:04:54;21.90;;;3.70;;
46765;SDS011;32527;51.986;5.842;2023-11-19T10:07:20;34.47;;;5.20;;
46765;SDS011;32527;51.986;5.842;2023-11-19T10:09:46;16.45;;;3.60;;
46765;SDS011;32527;51.986;5.842;2023-11-19T10:12:12;8.77;;;2.13;;
46765;SDS011;32527;51.986;5.842;2023-11-19T10:14:39;6.80;;;2.53;;
46765;SDS011;32527;51.986;5.842;2023-11-19T10:17:07;11.00;;;3.72;;
46765;SDS011;32527;51.986;5.842;2023-11-19T10:19:33;11.23;;;3.50;;
46765;SDS011;32527;51.986;5.842;2023-11-19T10:22:03;18.00;;;3.25;;
46765;SDS011;32527;51.986;5.842;2023-11-19T10:24:33;20.73;;;3.00;;
46765;SDS011;32527;51.986;5.842;2023-11-19T10:27:00;21.45;;;3.60;;
46765;SDS011;32527;51.986;5.842;2023-11-19T10:29:29;14.90;;;2.70;;
46765;SDS011;32527;51.986;5.842;2023-11-19T10:31:58;17.42;;;3.35;;
46765;SDS011;32527;51.986;5.842;2023-11-19T10:34:25;16.67;;;2.47;;
46765;SDS011;32527;51.986;5.842;2023-11-19T10:36:52;8.32;;;3.10;;
46765;SDS011;32527;51.986;5.842;2023-11-19T10:39:18;21.08;;;3.08;;
46765;SDS011;32527;51.986;5.842;2023-11-19T10:41:45;10.10;;;3.20;;
46765;SDS011;32527;51.986;5.842;2023-11-19T10:44:12;12.65;;;3.25;;
46765;SDS011;32527;51.986;5.842;2023-11-19T10:46:41;10.25;;;2.75;;
46765;SDS011;32527;51.986;5.842;2023-11-19T10:49:08;11.68;;;3.45;;
46765;SDS011;32527;51.986;5.842;2023-11-19T10:51:35;17.02;;;3.55;;
46765;SDS011;32527;51.986;5.842;2023-11-19T10:54:02;8.07;;;2.72;;
46765;SDS011;32527;51.986;5.842;2023-11-19T10:56:32;10.05;;;2.97;;
46765;SDS011;32527;51.986;5.842;2023-11-19T10:58:59;15.88;;;3.42;;
46765;SDS011;32527;51.986;5.842;2023-11-19T11:01:33;21.33;;;4.43;;
46765;SDS011;32527;51.986;5.842;2023-11-19T11:04:05;20.75;;;4.53;;
46765;SDS011;32527;51.986;5.842;2023-11-19T11:06:37;14.68;;;2.17;;
46765;SDS011;32527;51.986;5.842;2023-11-19T11:09:04;28.05;;;4.40;;
46765;SDS011;32527;51.986;5.842;2023-11-19T11:11:36;8.83;;;2.77;;
46765;SDS011;32527;51.986;5.842;2023-11-19T11:14:03;14.35;;;2.85;;
46765;SDS011;32527;51.986;5.842;2023-11-19T11:16:30;9.20;;;2.38;;
46765;SDS011;32527;51.986;5.842;2023-11-19T11:18:59;12.38;;;2.67;;
46765;SDS011;32527;51.986;5.842;2023-11-19T11:21:26;14.57;;;3.00;;
46765;SDS011;32527;51.986;5.842;2023-11-19T11:23:56;6.90;;;3.17;;
46765;SDS011;32527;51.986;5.842;2023-11-19T11:26:41;11.20;;;2.25;;
46765;SDS011;32527;51.986;5.842;2023-11-19T11:29:15;4.00;;;2.05;;
46765;SDS011;32527;51.986;5.842;2023-11-19T11:32:04;16.75;;;3.50;;
46765;SDS011;32527;51.986;5.842;2023-11-19T11:34:53;21.55;;;3.10;;
46765;SDS011;32527;51.986;5.842;2023-11-19T11:37:32;15.05;;;3.28;;
46765;SDS011;32527;51.986;5.842;2023-11-19T11:40:02;9.55;;;2.47;;
46765;SDS011;32527;51.986;5.842;2023-11-19T11:42:35;10.10;;;2.55;;
46765;SDS011;32527;51.986;5.842;2023-11-19T11:45:05;12.48;;;2.92;;
46765;SDS011;32527;51.986;5.842;2023-11-19T11:50:11;9.00;;;2.65;;
46765;SDS011;32527;51.986;5.842;2023-11-19T11:55:28;17.77;;;3.45;;
46765;SDS011;32527;51.986;5.842;2023-11-19T11:57:54;11.18;;;3.65;;
46765;SDS011;32527;51.986;5.842;2023-11-19T12:00:27;12.25;;;3.95;;
46765;SDS011;32527;51.986;5.842;2023-11-19T12:02:55;16.77;;;4.45;;
46765;SDS011;32527;51.986;5.842;2023-11-19T12:05:21;14.95;;;3.08;;
46765;SDS011;32527;51.986;5.842;2023-11-19T12:07:59;12.57;;;3.25;;
46765;SDS011;32527;51.986;5.842;2023-11-19T12:10:31;13.32;;;2.95;;
46765;SDS011;32527;51.986;5.842;2023-11-19T12:13:02;7.10;;;2.63;;
46765;SDS011;32527;51.986;5.842;2023-11-19T12:15:33;12.20;;;4.25;;
46765;SDS011;32527;51.986;5.842;2023-11-19T12:17:58;12.20;;;2.28;;
46765;SDS011;32527;51.986;5.842;2023-11-19T12:20:25;8.35;;;4.25;;
46765;SDS011;32527;51.986;5.842;2023-11-19T12:22:51;6.82;;;1.60;;
46765;SDS011;32527;51.986;5.842;2023-11-19T12:25:17;12.43;;;2.67;;
46765;SDS011;32527;51.986;5.842;2023-11-19T12:27:50;9.35;;;1.67;;
46765;SDS011;32527;51.986;5.842;2023-11-19T12:30:24;5.75;;;2.08;;
46765;SDS011;32527;51.986;5.842;2023-11-19T12:32:50;15.20;;;3.72;;
46765;SDS011;32527;51.986;5.842;2023-11-19T12:35:18;14.57;;;3.80;;
46765;SDS011;32527;51.986;5.842;2023-11-19T12:37:48;6.57;;;2.15;;
46765;SDS011;32527;51.986;5.842;2023-11-19T12:40:17;8.15;;;3.45;;
46765;SDS011;32527;51.986;5.842;2023-11-19T12:42:50;8.52;;;1.85;;
46765;SDS011;32527;51.986;5.842;2023-11-19T12:45:17;12.25;;;2.60;;
46765;SDS011;32527;51.986;5.842;2023-11-19T12:47:45;9.68;;;2.70;;
46765;SDS011;32527;51.986;5.842;2023-11-19T12:50:15;14.35;;;2.35;;
46765;SDS011;32527;51.986;5.842;2023-11-19T12:52:54;13.13;;;3.42;;
46765;SDS011;32527;51.986;5.842;2023-11-19T12:55:28;6.30;;;2.35;;
46765;SDS011;32527;51.986;5.842;2023-11-19T12:57:55;3.78;;;1.73;;
46765;SDS011;32527;51.986;5.842;2023-11-19T13:00:25;13.57;;;2.80;;
46765;SDS011;32527;51.986;5.842;2023-11-19T13:02:55;4.43;;;1.55;;
46765;SDS011;32527;51.986;5.842;2023-11-19T13:05:32;11.05;;;3.47;;
46765;SDS011;32527;51.986;5.842;2023-11-19T13:10:25;5.00;;;2.28;;
46765;SDS011;32527;51.986;5.842;2023-11-19T13:13:25;6.25;;;2.42;;
46765;SDS011;32527;51.986;5.842;2023-11-19T13:15:43;16.65;;;4.35;;
46765;SDS011;32527;51.986;5.842;2023-11-19T13:18:10;17.02;;;4.03;;
46765;SDS011;32527;51.986;5.842;2023-11-19T13:20:36;10.70;;;2.55;;
46765;SDS011;32527;51.986;5.842;2023-11-19T13:23:03;6.28;;;2.33;;
46765;SDS011;32527;51.986;5.842;2023-11-19T13:25:30;18.83;;;4.10;;
46765;SDS011;32527;51.986;5.842;2023-11-19T13:27:57;10.80;;;2.92;;
46765;SDS011;32527;51.986;5.842;2023-11-19T13:30:23;5.32;;;2.47;;
46765;SDS011;32527;51.986;5.842;2023-11-19T13:32:50;8.60;;;1.80;;
46765;SDS011;32527;51.986;5.842;2023-11-19T13:35:17;9.82;;;2.35;;
46765;SDS011;32527;51.986;5.842;2023-11-19T13:37:46;10.07;;;2.90;;
46765;SDS011;32527;51.986;5.842;2023-11-19T13:40:12;4.10;;;1.75;;
46765;SDS011;32527;51.986;5.842;2023-11-19T13:42:42;12.07;;;2.35;;
46765;SDS011;32527;51.986;5.842;2023-11-19T13:47:44;8.63;;;2.33;;
46765;SDS011;32527;51.986;5.842;2023-11-19T13:50:12;10.73;;;3.78;;
46765;SDS011;32527;51.986;5.842;2023-11-19T13:52:40;9.98;;;3.30;;
46765;SDS011;32527;51.986;5.842;2023-11-19T13:55:10;12.15;;;2.42;;
46765;SDS011;32527;51.986;5.842;2023-11-19T13:57:36;9.07;;;2.75;;
46765;SDS011;32527;51.986;5.842;2023-11-19T14:00:03;9.38;;;2.55;;
46765;SDS011;32527;51.986;5.842;2023-11-19T14:02:38;8.10;;;3.38;;
46765;SDS011;32527;51.986;5.842;2023-11-19T14:05:05;16.30;;;3.67;;
46765;SDS011;32527;51.986;5.842;2023-11-19T14:10:53;7.22;;;2.63;;
46765;SDS011;32527;51.986;5.842;2023-11-19T14:13:21;9.07;;;2.03;;
46765;SDS011;32527;51.986;5.842;2023-11-19T14:15:48;6.32;;;2.40;;
46765;SDS011;32527;51.986;5.842;2023-11-19T14:18:14;9.07;;;2.67;;
46765;SDS011;32527;51.986;5.842;2023-11-19T14:20:40;7.75;;;3.63;;
46765;SDS011;32527;51.986;5.842;2023-11-19T14:23:06;11.38;;;2.63;;
46765;SDS011;32527;51.986;5.842;2023-11-19T14:25:34;8.35;;;1.45;;
46765;SDS011;32527;51.986;5.842;2023-11-19T14:28:00;15.52;;;3.10;;
46765;SDS011;32527;51.986;5.842;2023-11-19T14:30:26;14.70;;;3.10;;
46765;SDS011;32527;51.986;5.842;2023-11-19T14:32:52;7.68;;;2.53;;
46765;SDS011;32527;51.986;5.842;2023-11-19T14:35:19;9.80;;;2.10;;
46765;SDS011;32527;51.986;5.842;2023-11-19T14:37:45;10.05;;;2.47;;
46765;SDS011;32527;51.986;5.842;2023-11-19T14:40:11;3.53;;;1.75;;
46765;SDS011;32527;51.986;5.842;2023-11-19T14:42:37;11.55;;;2.38;;
46765;SDS011;32527;51.986;5.842;2023-11-19T14:45:04;8.50;;;2.97;;
46765;SDS011;32527;51.986;5.842;2023-11-19T14:47:30;7.72;;;1.83;;
46765;SDS011;32527;51.986;5.842;2023-11-19T14:49:56;6.00;;;1.45;;
46765;SDS011;32527;51.986;5.842;2023-11-19T14:52:22;6.97;;;2.72;;
46765;SDS011;32527;51.986;5.842;2023-11-19T14:54:48;24.02;;;3.10;;
46765;SDS011;32527;51.986;5.842;2023-11-19T14:57:16;5.00;;;1.77;;